Hauula, HI (96717)

5:24 PM HST on June 22, 2017 (GMT -1000)
Asia Pacific International School | | Change Station
Active Advisory: Special Statement

Elev 65 ft 21.62 °N, 157.92 °W | Updated 19 seconds ago

Partly Cloudy
Partly Cloudy
83.5 °F
Feels Like 89 °F
N
5.3
Wind Variable Wind from SE

Today
High -- | Low -- °F
--% Chance of Precip.
Yesterday
High -- | Low -- °F
Precip. -- in
Pressure 29.91 in
Visibility 10.0 miles
Clouds Mostly Cloudy 4600 ft
Heat Index 89 °F
Dew Point 72 °F
Humidity 69%
Rainfall 0.00 in
Snow Depth Not available.
5:50 AM 7:17 PM
Waning Crescent, 1% visible
METAR PHHI 230258Z AUTO 07007KT 10SM BKN046 27/19 A2994 RMK AO2 SLP128 T02690190 55006 $
Pressure 29.91 in
Visibility 10.0 miles
Clouds Mostly Cloudy 4600 ft
Heat Index 89 °F
Dew Point 72 °F
Humidity 69%
Rainfall 0.00 in
Snow Depth Not available.
5:50 AM 7:17 PM
Waning Crescent, 1% visible
METAR PHHI 230258Z AUTO 07007KT 10SM BKN046 27/19 A2994 RMK AO2 SLP128 T02690190 55006 $

Get Your Daily Forecast Email!

Thanks for signing up!

Be on the lookout for a verification email in your inbox.

You'll start receiving severe weather alerts in your inbox..

×

10-Day Weather Forecast

Almanac

Astronomy

Jun. 22, 2017 Rise Set
Actual Time
Civil Twilight
Nautical Twilight
Astronomical Twilight
Moon
Length of Visible Light
Length of Day
Tomorrow will be .
, % of the Moon is Illuminated

Today's Extremes

State Highs State Lows

Community

WunderPhotos

Category 6

Welcome to Category 6. This is the collective home for Weather Underground's featured writeups by Dr. Jeff Masters (right), Bob Henson (left), Chris Burt, and other regular contributors.

Nearby

Air Quality

  Air Quality AQ Index Pollutant
Not available.

Snow Depth

Station Depth Elevation

Earthquake Activity

City Distance Mag. Time & Date
Minimum magnitude displayed is 2.5.

Coastal Water Temperatures

Place Temperature

Stations

Nearby Weather Stations

Station Location Temp. Windchill Dew Point Humidity Wind Precip. Elev Updated Type
                   

Watches & Warnings

Special Statement
Issued: 3:53 AM HST Jun. 22, 2017 – National Weather Service

... Coastal flooding possible...

Coastal flooding associated with King tides will be a possibility
the next couple of days, especially along south facing shores,
where surf will be elevated. The greatest potential for coastal
flooding impacts will be during the mid to late afternoon hours
through Saturday, when highest tides are expected. Visit
tidesandcurrents.NOAA.Gov for more specific information about
forecast tides and water levels in your area.

Impacts may include flooding of beaches that are normally dry,
salt water inundation of typically vulnerable low-lying roads,
docks, boat ramps and other coastal infrastructure. The
potential for coastal flooding will diminish from Sunday into
next week as the peak daily tides diminish.


Birchard